createdAt,value
2022-09-22T00:01:43.437Z,6.07
2022-09-22T00:04:15.193Z,6.00
2022-09-22T00:06:47.665Z,5.27
2022-09-22T00:09:17.736Z,4.70
2022-09-22T00:11:47.652Z,4.97
2022-09-22T00:14:17.875Z,5.37
2022-09-22T00:16:49.645Z,5.30
2022-09-22T00:19:19.582Z,5.23
2022-09-22T00:21:50.929Z,4.80
2022-09-22T00:24:22.778Z,5.13
2022-09-22T00:26:52.424Z,6.07
2022-09-22T00:29:21.199Z,6.70
2022-09-22T00:31:49.627Z,6.30
2022-09-22T00:34:20.194Z,6.47
2022-09-22T00:36:53.606Z,7.23
2022-09-22T00:39:22.319Z,7.90
2022-09-22T00:41:53.910Z,8.20
2022-09-22T00:44:36.094Z,7.97
2022-09-22T00:47:09.684Z,8.83
2022-09-22T00:49:45.809Z,8.30
2022-09-22T00:52:20.786Z,9.27
2022-09-22T00:54:51.553Z,8.90
2022-09-22T00:57:22.589Z,10.03
2022-09-22T00:59:53.872Z,10.20
2022-09-22T01:02:23.961Z,9.93
2022-09-22T01:04:53.903Z,10.10
2022-09-22T01:07:29.593Z,10.03
2022-09-22T01:09:59.092Z,10.90
2022-09-22T01:12:29.513Z,10.70
2022-09-22T01:15:10.932Z,10.97
2022-09-22T01:17:53.270Z,9.83
2022-09-22T01:21:09.266Z,10.30
2022-09-22T01:24:15.610Z,10.10
2022-09-22T01:27:17.233Z,10.30
2022-09-22T01:30:18.534Z,9.60
2022-09-22T01:33:08.749Z,9.77
2022-09-22T01:35:45.469Z,10.00
2022-09-22T01:38:22.372Z,10.00
2022-09-22T01:40:56.230Z,10.00
2022-09-22T01:43:37.847Z,10.30
2022-09-22T01:46:13.537Z,10.13
2022-09-22T01:48:46.481Z,10.27
2022-09-22T01:51:19.907Z,10.27
2022-09-22T01:53:54.423Z,9.60
2022-09-22T01:56:24.920Z,10.20
2022-09-22T01:58:56.717Z,9.53
2022-09-22T02:01:31.076Z,9.77
2022-09-22T02:04:05.663Z,9.77
2022-09-22T02:06:37.730Z,10.53
2022-09-22T02:09:11.118Z,10.93
2022-09-22T02:11:41.052Z,10.60
2022-09-22T02:14:09.994Z,10.03
2022-09-22T02:16:41.058Z,10.57
2022-09-22T02:19:13.881Z,11.83
2022-09-22T02:21:50.368Z,11.63
2022-09-22T02:24:31.695Z,11.90
2022-09-22T02:27:02.098Z,12.13
2022-09-22T02:29:33.758Z,11.63
2022-09-22T02:32:09.759Z,12.57
2022-09-22T02:34:38.445Z,13.50
2022-09-22T02:37:14.987Z,13.53
2022-09-22T02:39:50.102Z,13.13
2022-09-22T02:42:29.727Z,12.93
2022-09-22T02:45:06.906Z,12.47
2022-09-22T02:47:42.795Z,13.50
2022-09-22T02:50:13.681Z,14.77
2022-09-22T02:52:46.419Z,14.20
2022-09-22T02:55:16.300Z,14.00
2022-09-22T02:57:45.820Z,15.17
2022-09-22T03:00:15.044Z,14.47
2022-09-22T03:02:44.871Z,14.87
2022-09-22T03:05:13.258Z,14.43
2022-09-22T03:07:41.463Z,15.10
2022-09-22T03:10:11.211Z,14.73
2022-09-22T03:13:02.385Z,14.00
2022-09-22T03:15:31.578Z,14.60
2022-09-22T03:18:01.707Z,14.27
2022-09-22T03:20:30.040Z,13.83
2022-09-22T03:22:58.332Z,12.83
2022-09-22T03:25:26.793Z,13.30
2022-09-22T03:27:56.535Z,13.50
2022-09-22T03:30:24.998Z,13.10
2022-09-22T03:32:53.305Z,13.43
2022-09-22T03:35:23.716Z,13.93
2022-09-22T03:37:51.902Z,12.77
2022-09-22T03:40:22.436Z,13.77
2022-09-22T03:42:51.243Z,13.90
2022-09-22T03:45:19.788Z,13.50
2022-09-22T03:47:48.336Z,13.10
2022-09-22T03:50:16.582Z,13.00
2022-09-22T03:52:46.482Z,13.40
2022-09-22T03:55:14.929Z,13.03
2022-09-22T03:57:43.559Z,12.93
2022-09-22T04:00:14.539Z,12.17
2022-09-22T04:02:43.413Z,12.00
2022-09-22T04:05:12.413Z,11.57
2022-09-22T04:07:40.567Z,12.07
2022-09-22T04:10:11.001Z,12.83
2022-09-22T04:12:39.516Z,11.13
2022-09-22T04:15:09.030Z,12.27
2022-09-22T04:17:37.687Z,11.77
2022-09-22T04:20:07.466Z,11.33
2022-09-22T04:22:36.216Z,11.03
2022-09-22T04:25:05.082Z,11.53
2022-09-22T04:27:35.042Z,10.27
2022-09-22T04:30:07.431Z,11.33
2022-09-22T04:32:36.327Z,11.30
2022-09-22T04:35:05.047Z,10.40
2022-09-22T04:37:33.560Z,10.60
2022-09-22T04:40:02.016Z,10.10
2022-09-22T04:42:31.486Z,11.10
2022-09-22T04:45:02.320Z,10.07
2022-09-22T04:47:31.216Z,10.60
2022-09-22T04:49:59.707Z,10.00
2022-09-22T04:52:28.305Z,9.47
2022-09-22T04:54:59.021Z,10.00
2022-09-22T04:57:27.425Z,9.97
2022-09-22T04:59:55.728Z,10.63
2022-09-22T05:02:25.611Z,10.30
2022-09-22T05:04:53.997Z,10.73
2022-09-22T05:07:22.788Z,10.10
2022-09-22T05:09:51.031Z,9.83
2022-09-22T05:12:21.494Z,9.97
2022-09-22T05:14:50.104Z,9.07
2022-09-22T05:17:23.850Z,8.67
2022-09-22T05:19:56.125Z,9.57
2022-09-22T05:22:28.175Z,9.23
2022-09-22T05:24:56.363Z,9.37
2022-09-22T05:27:26.289Z,9.07
2022-09-22T05:29:54.447Z,8.40
2022-09-22T05:32:22.927Z,8.80
2022-09-22T05:34:56.187Z,8.10
2022-09-22T05:37:24.460Z,7.83
2022-09-22T05:39:52.678Z,8.37
2022-09-22T05:42:21.499Z,7.60
2022-09-22T05:44:50.004Z,8.57
2022-09-22T05:47:18.288Z,8.47
2022-09-22T05:49:47.158Z,8.70
2022-09-22T05:52:18.631Z,8.70
2022-09-22T05:54:46.722Z,8.60
2022-09-22T05:57:15.132Z,7.60
2022-09-22T05:59:43.294Z,8.70
2022-09-22T06:02:25.147Z,7.80
2022-09-22T06:04:54.322Z,8.33
2022-09-22T06:07:25.491Z,8.23
2022-09-22T06:09:54.303Z,7.57
2022-09-22T06:12:22.880Z,8.27
2022-09-22T06:14:51.256Z,8.60
2022-09-22T06:17:19.588Z,8.80
2022-09-22T06:19:50.619Z,8.20
2022-09-22T06:22:19.625Z,7.80
2022-09-22T06:24:49.630Z,7.97
2022-09-22T06:27:20.759Z,7.77
2022-09-22T06:29:49.128Z,7.70
2022-09-22T06:32:19.668Z,7.23
2022-09-22T06:34:48.029Z,7.63
2022-09-22T06:37:16.308Z,7.40
2022-09-22T06:39:44.382Z,7.87
2022-09-22T06:42:17.530Z,8.17
2022-09-22T06:44:46.268Z,7.97
2022-09-22T06:47:14.614Z,8.17
2022-09-22T06:49:43.393Z,8.03
2022-09-22T06:52:15.017Z,8.03
2022-09-22T06:54:44.384Z,7.70
2022-09-22T06:57:13.726Z,8.00
2022-09-22T06:59:44.751Z,8.30
2022-09-22T07:02:13.129Z,7.77
2022-09-22T07:04:41.459Z,8.40
2022-09-22T07:07:10.197Z,8.67
2022-09-22T07:09:38.460Z,8.37
2022-09-22T07:12:07.214Z,8.03
2022-09-22T07:14:35.335Z,8.23
2022-09-22T07:17:05.376Z,8.17
2022-09-22T07:19:36.335Z,7.67
2022-09-22T07:22:04.964Z,8.13
2022-09-22T07:24:33.334Z,8.70
2022-09-22T07:27:06.093Z,9.20
2022-09-22T07:29:34.827Z,7.30
2022-09-22T07:32:05.141Z,7.33
2022-09-22T07:34:33.731Z,6.53
2022-09-22T07:37:03.191Z,6.80
2022-09-22T07:39:31.361Z,6.03
2022-09-22T07:41:59.774Z,6.50
2022-09-22T07:44:45.027Z,6.63
2022-09-22T07:47:36.108Z,6.37
2022-09-22T07:50:06.719Z,6.33
2022-09-22T07:52:35.194Z,6.40
2022-09-22T07:55:04.051Z,6.47
2022-09-22T07:57:33.640Z,6.37
2022-09-22T08:00:02.142Z,5.83
2022-09-22T08:02:32.112Z,5.40
2022-09-22T08:05:03.469Z,4.90
2022-09-22T08:07:33.342Z,5.40
2022-09-22T08:10:01.895Z,5.30
2022-09-22T08:12:30.201Z,4.70
2022-09-22T08:15:02.342Z,4.90
2022-09-22T08:17:34.303Z,4.50
2022-09-22T08:20:05.320Z,4.53
2022-09-22T08:22:37.007Z,4.60
2022-09-22T08:25:06.659Z,3.87
2022-09-22T08:27:36.794Z,3.37
2022-09-22T08:30:09.328Z,3.57
2022-09-22T08:32:39.424Z,3.03
2022-09-22T08:35:09.286Z,3.10
2022-09-22T08:37:38.224Z,3.10
2022-09-22T08:40:08.193Z,3.40
2022-09-22T08:42:36.560Z,2.80
2022-09-22T08:45:09.433Z,2.87
2022-09-22T08:48:01.898Z,2.70
2022-09-22T08:50:56.228Z,2.63
2022-09-22T08:53:24.660Z,2.57
2022-09-22T08:56:00.658Z,2.20
2022-09-22T08:58:40.784Z,2.57
2022-09-22T09:01:25.357Z,2.30
2022-09-22T09:04:13.475Z,2.53
2022-09-22T09:06:48.613Z,2.70
2022-09-22T09:09:34.076Z,2.90
2022-09-22T09:12:12.682Z,2.67
2022-09-22T09:15:17.194Z,2.40
2022-09-22T09:17:48.665Z,2.40
2022-09-22T09:20:26.665Z,1.93
2022-09-22T09:22:56.211Z,1.83
2022-09-22T09:25:31.704Z,2.10
2022-09-22T09:28:03.324Z,2.10
2022-09-22T09:30:42.801Z,1.80
2022-09-22T09:33:19.649Z,2.23
2022-09-22T09:35:52.363Z,1.67
2022-09-22T09:38:27.637Z,2.00
2022-09-22T09:41:03.312Z,1.60
2022-09-22T09:43:33.678Z,1.17
2022-09-22T09:46:14.961Z,1.50
2022-09-22T09:48:58.826Z,1.00
2022-09-22T09:51:30.905Z,1.00
2022-09-22T09:54:05.639Z,1.10
2022-09-22T09:56:37.235Z,1.10
2022-09-22T09:59:24.572Z,0.90
2022-09-22T10:01:56.202Z,1.23
2022-09-22T10:04:33.796Z,1.40
2022-09-22T10:07:16.869Z,1.20
2022-09-22T10:09:49.128Z,1.00
2022-09-22T10:12:26.312Z,1.33
2022-09-22T10:14:56.332Z,1.20
2022-09-22T10:17:29.311Z,1.20
2022-09-22T10:20:24.332Z,1.20
2022-09-22T10:22:55.207Z,1.07
2022-09-22T10:25:26.241Z,1.20
2022-09-22T10:28:02.246Z,1.20
2022-09-22T10:30:33.114Z,1.10
2022-09-22T10:33:17.388Z,1.07
2022-09-22T10:35:47.641Z,1.20
2022-09-22T10:38:22.222Z,1.00
2022-09-22T10:40:58.037Z,1.10
2022-09-22T10:43:37.278Z,1.40
2022-09-22T10:46:19.256Z,0.80
2022-09-22T10:48:50.755Z,1.30
2022-09-22T10:51:34.320Z,0.90
2022-09-22T10:54:31.744Z,1.00
2022-09-22T10:57:10.317Z,0.87
2022-09-22T10:59:55.561Z,0.80
2022-09-22T11:03:06.721Z,1.10
2022-09-22T11:06:12.238Z,1.00
2022-09-22T11:09:06.158Z,1.00
2022-09-22T11:12:00.603Z,1.13
2022-09-22T11:14:42.986Z,1.10
2022-09-22T11:17:21.213Z,1.10
2022-09-22T11:20:02.748Z,0.77
2022-09-22T11:23:00.416Z,0.80
2022-09-22T11:25:44.928Z,0.90
2022-09-22T11:28:33.234Z,1.10
2022-09-22T11:31:02.018Z,1.00
2022-09-22T11:33:58.289Z,1.00
2022-09-22T11:36:42.752Z,1.03
2022-09-22T11:39:35.150Z,1.23
2022-09-22T11:42:17.823Z,1.60
2022-09-22T11:44:59.099Z,0.80
2022-09-22T11:47:41.424Z,1.00
2022-09-22T11:50:32.432Z,1.10
2022-09-22T11:53:23.418Z,0.83
2022-09-22T11:56:06.573Z,0.70
2022-09-22T11:58:41.290Z,0.83
2022-09-22T12:01:15.065Z,1.07
2022-09-22T12:03:47.852Z,0.90
2022-09-22T12:06:21.301Z,1.00
2022-09-22T12:08:56.748Z,1.00
2022-09-22T12:11:29.083Z,1.00
2022-09-22T12:13:59.176Z,1.10
2022-09-22T12:16:41.965Z,0.90
2022-09-22T12:19:22.018Z,1.00
2022-09-22T12:21:57.191Z,1.00
2022-09-22T12:24:25.748Z,1.20
2022-09-22T12:26:54.517Z,0.80
2022-09-22T12:29:29.170Z,0.90
2022-09-22T12:32:00.339Z,1.07
2022-09-22T12:34:34.121Z,1.17
2022-09-22T12:37:13.929Z,0.97
2022-09-22T12:39:44.761Z,1.03
2022-09-22T12:42:21.534Z,0.90
2022-09-22T12:44:54.960Z,1.00
2022-09-22T12:47:32.311Z,1.10
2022-09-22T12:50:07.089Z,1.37
2022-09-22T12:52:58.995Z,1.13
2022-09-22T12:55:38.363Z,0.93
2022-09-22T12:58:42.732Z,1.20
2022-09-22T13:01:35.613Z,1.00
2022-09-22T13:04:16.992Z,1.10
2022-09-22T13:07:06.595Z,1.10
2022-09-22T13:09:34.981Z,1.40
2022-09-22T13:12:25.580Z,1.10
2022-09-22T13:15:18.519Z,1.23
2022-09-22T13:17:48.437Z,1.23
2022-09-22T13:20:32.983Z,1.40
2022-09-22T13:23:12.162Z,1.60
2022-09-22T13:25:42.617Z,0.90
2022-09-22T13:28:16.613Z,0.90
2022-09-22T13:30:47.121Z,1.00
2022-09-22T13:33:24.800Z,0.90
2022-09-22T13:36:01.795Z,1.20
2022-09-22T13:38:31.317Z,1.00
2022-09-22T13:40:59.418Z,1.00
2022-09-22T13:43:35.355Z,0.77
2022-09-22T13:46:05.423Z,0.90
2022-09-22T13:48:36.821Z,0.93
2022-09-22T13:51:09.538Z,1.20
2022-09-22T13:53:39.022Z,0.70
2022-09-22T13:56:16.929Z,1.10
2022-09-22T13:58:50.293Z,0.87
2022-09-22T14:01:20.663Z,0.70
2022-09-22T14:03:50.667Z,0.70
2022-09-22T14:06:23.393Z,1.20
2022-09-22T14:08:53.355Z,1.00
2022-09-22T14:11:24.151Z,0.87
2022-09-22T14:14:01.404Z,0.80
2022-09-22T14:16:34.226Z,0.97
2022-09-22T14:19:06.778Z,0.90
2022-09-22T14:21:43.236Z,0.70
2022-09-22T14:24:15.288Z,0.90
2022-09-22T14:26:48.169Z,0.93
2022-09-22T14:29:20.928Z,0.83
2022-09-22T14:31:53.789Z,0.90
2022-09-22T14:34:26.208Z,0.80
2022-09-22T14:36:56.870Z,0.87
2022-09-22T14:39:32.226Z,0.63
2022-09-22T14:42:09.398Z,0.97
2022-09-22T14:44:46.352Z,1.00
2022-09-22T14:47:24.432Z,0.87
2022-09-22T14:50:08.825Z,2.40
2022-09-22T14:52:42.351Z,1.38
2022-09-22T14:55:18.253Z,0.65
2022-09-22T14:57:49.863Z,0.90
2022-09-22T15:00:36.747Z,0.82
2022-09-22T15:03:16.470Z,1.33
2022-09-22T15:05:45.614Z,0.85
2022-09-22T15:08:21.836Z,0.93
2022-09-22T15:10:54.494Z,1.42
2022-09-22T15:13:31.350Z,0.70
2022-09-22T15:16:01.325Z,0.90
2022-09-22T15:18:31.053Z,0.82
2022-09-22T15:21:05.585Z,0.98
2022-09-22T15:23:42.119Z,0.70
2022-09-22T15:26:18.435Z,0.90
2022-09-22T15:28:48.580Z,0.77
2022-09-22T15:31:27.037Z,1.00
2022-09-22T15:33:56.310Z,0.70
2022-09-22T15:36:28.318Z,0.70
2022-09-22T15:39:01.107Z,0.85
2022-09-22T15:41:29.726Z,0.88
2022-09-22T15:43:59.923Z,0.80
2022-09-22T15:46:34.052Z,0.80
2022-09-22T15:49:05.680Z,0.75
2022-09-22T15:51:34.799Z,0.65
2022-09-22T15:54:05.841Z,0.80
2022-09-22T15:56:34.579Z,0.68
2022-09-22T15:59:02.995Z,0.90
2022-09-22T16:01:31.334Z,0.90
2022-09-22T16:04:00.551Z,0.55
2022-09-22T16:06:29.265Z,0.88
2022-09-22T16:08:58.638Z,1.10
2022-09-22T16:11:30.160Z,0.88
2022-09-22T16:14:03.438Z,0.90
2022-09-22T16:16:36.445Z,1.10
2022-09-22T16:19:07.981Z,1.10
2022-09-22T16:21:38.170Z,0.90
2022-09-22T16:24:09.627Z,0.80
2022-09-22T16:26:41.320Z,0.90
2022-09-22T16:29:11.501Z,1.00
2022-09-22T16:31:42.508Z,1.20
2022-09-22T16:34:12.061Z,1.00
2022-09-22T16:36:42.218Z,0.90
2022-09-22T16:39:10.858Z,2.08
2022-09-22T16:41:45.913Z,0.90
2022-09-22T16:44:15.798Z,0.98
2022-09-22T16:46:44.639Z,0.90
2022-09-22T16:49:15.912Z,1.20
2022-09-22T16:51:47.004Z,0.80
2022-09-22T16:54:15.841Z,1.02
2022-09-22T16:56:48.124Z,1.15
2022-09-22T16:59:18.382Z,0.88
2022-09-22T17:01:52.502Z,1.33
2022-09-22T17:04:24.173Z,1.30
2022-09-22T17:06:56.258Z,1.00
2022-09-22T17:09:24.866Z,1.10
2022-09-22T17:11:58.124Z,0.98
2022-09-22T17:14:29.162Z,1.00
2022-09-22T17:17:06.766Z,4.60
2022-09-22T17:19:36.476Z,1.48
2022-09-22T17:22:08.707Z,6.22
2022-09-22T17:24:37.381Z,4.53
2022-09-22T17:27:08.910Z,8.57
2022-09-22T17:29:37.126Z,2.90
2022-09-22T17:32:08.810Z,2.10
2022-09-22T17:34:39.443Z,7.50
2022-09-22T17:37:07.688Z,7.37
2022-09-22T17:39:37.853Z,2.70
2022-09-22T17:42:10.673Z,2.50
2022-09-22T17:44:42.914Z,2.40
2022-09-22T17:47:29.554Z,2.30
2022-09-22T17:50:14.968Z,2.13
2022-09-22T17:53:01.008Z,1.87
2022-09-22T17:55:29.730Z,1.33
2022-09-22T17:57:59.401Z,1.20
2022-09-22T18:00:30.014Z,1.20
2022-09-22T18:02:58.807Z,0.93
2022-09-22T18:05:27.951Z,1.10
2022-09-22T18:07:59.224Z,1.30
2022-09-22T18:10:32.534Z,1.03
2022-09-22T18:13:04.302Z,1.23
2022-09-22T18:15:32.984Z,1.20
2022-09-22T18:18:01.564Z,1.10
2022-09-22T18:20:30.556Z,1.60
2022-09-22T18:23:00.525Z,2.10
2022-09-22T18:25:30.428Z,2.00
2022-09-22T18:28:01.613Z,1.90
2022-09-22T18:30:32.211Z,3.67
2022-09-22T18:33:02.999Z,1.77
2022-09-22T18:35:34.130Z,1.73
2022-09-22T18:38:02.241Z,1.30
2022-09-22T18:40:30.832Z,1.80
2022-09-22T18:43:02.560Z,1.50
2022-09-22T18:45:31.270Z,2.00
2022-09-22T18:48:03.061Z,1.80
2022-09-22T18:50:36.326Z,2.20
2022-09-22T18:53:04.846Z,1.80
2022-09-22T18:55:33.280Z,2.80
2022-09-22T18:58:03.148Z,3.07
2022-09-22T19:00:31.783Z,2.60
2022-09-22T19:03:00.656Z,2.53
2022-09-22T19:05:28.983Z,2.70
2022-09-22T19:08:00.561Z,2.20
2022-09-22T19:10:29.242Z,2.30
2022-09-22T19:12:57.620Z,2.13
2022-09-22T19:15:28.558Z,2.03
2022-09-22T19:17:57.515Z,2.00
2022-09-22T19:20:26.397Z,2.30
2022-09-22T19:22:59.115Z,2.07
2022-09-22T19:25:29.495Z,1.57
2022-09-22T19:27:58.183Z,1.60
2022-09-22T19:30:31.460Z,1.60
2022-09-22T19:33:00.731Z,1.63
2022-09-22T19:35:29.551Z,2.20
2022-09-22T19:37:58.667Z,2.00
2022-09-22T19:40:28.588Z,2.00
2022-09-22T19:42:57.002Z,2.20
2022-09-22T19:45:28.117Z,1.80
2022-09-22T19:47:58.627Z,2.23
2022-09-22T19:50:27.765Z,2.03
2022-09-22T19:52:56.525Z,2.20
2022-09-22T19:55:24.992Z,2.37
2022-09-22T19:57:54.366Z,2.50
2022-09-22T20:00:26.322Z,2.40
2022-09-22T20:02:59.401Z,2.87
2022-09-22T20:05:30.342Z,3.07
2022-09-22T20:07:59.671Z,2.80
2022-09-22T20:10:33.394Z,2.50
2022-09-22T20:13:24.856Z,3.00
2022-09-22T20:15:53.509Z,3.10
2022-09-22T20:18:23.593Z,3.47
2022-09-22T20:20:53.720Z,2.80
2022-09-22T20:23:25.997Z,3.43
2022-09-22T20:25:54.421Z,2.30
2022-09-22T20:28:23.047Z,2.70
2022-09-22T20:30:52.723Z,2.90
2022-09-22T20:33:24.939Z,2.20
2022-09-22T20:35:55.554Z,2.20
2022-09-22T20:38:24.253Z,1.70
2022-09-22T20:40:52.668Z,1.87
2022-09-22T20:43:21.305Z,2.10
2022-09-22T20:45:49.843Z,1.93
2022-09-22T20:48:23.418Z,1.97
2022-09-22T20:50:58.800Z,1.80
2022-09-22T20:53:28.236Z,1.80
2022-09-22T20:56:01.439Z,1.87
2022-09-22T20:58:32.523Z,2.00
2022-09-22T21:01:01.352Z,1.60
2022-09-22T21:03:30.342Z,2.03
2022-09-22T21:06:07.902Z,1.90
2022-09-22T21:08:56.685Z,2.00
2022-09-22T21:11:26.848Z,2.00
2022-09-22T21:14:02.112Z,1.87
2022-09-22T21:16:30.637Z,2.30
2022-09-22T21:19:12.553Z,2.00
2022-09-22T21:21:43.259Z,1.90
2022-09-22T21:24:12.771Z,1.90
2022-09-22T21:26:41.756Z,1.80
2022-09-22T21:29:11.075Z,2.07
2022-09-22T21:31:39.263Z,2.20
2022-09-22T21:34:07.743Z,2.30
2022-09-22T21:36:36.631Z,1.80
2022-09-22T21:39:06.697Z,2.03
2022-09-22T21:41:35.507Z,1.90
2022-09-22T21:44:05.431Z,1.80
2022-09-22T21:46:41.791Z,1.60
2022-09-22T21:49:11.472Z,1.63
2022-09-22T21:51:42.906Z,1.60
2022-09-22T21:54:16.907Z,1.60
2022-09-22T21:56:46.169Z,1.87
2022-09-22T21:59:15.626Z,2.03
2022-09-22T22:01:46.176Z,2.20
2022-09-22T22:04:16.569Z,2.23
2022-09-22T22:06:46.484Z,2.43
2022-09-22T22:09:18.739Z,2.00
2022-09-22T22:11:49.619Z,2.17
2022-09-22T22:14:20.374Z,1.90
2022-09-22T22:16:50.337Z,2.00
2022-09-22T22:19:21.305Z,1.70
2022-09-22T22:21:51.228Z,1.90
2022-09-22T22:24:42.828Z,1.90
2022-09-22T22:27:13.844Z,2.00
2022-09-22T22:29:42.072Z,1.93
2022-09-22T22:32:14.739Z,1.80
2022-09-22T22:34:43.125Z,1.70
2022-09-22T22:37:14.312Z,1.90
2022-09-22T22:39:44.519Z,1.97
2022-09-22T22:42:12.874Z,2.30
2022-09-22T22:44:41.990Z,2.00
2022-09-22T22:47:10.504Z,2.10
2022-09-22T22:49:38.856Z,2.07
2022-09-22T22:52:07.149Z,2.40
2022-09-22T22:54:38.927Z,2.13
2022-09-22T22:57:08.898Z,2.57
2022-09-22T22:59:37.296Z,2.80
2022-09-22T23:02:05.446Z,2.20
2022-09-22T23:04:33.868Z,2.50
2022-09-22T23:07:02.365Z,2.47
2022-09-22T23:09:30.612Z,2.10
2022-09-22T23:11:58.681Z,2.20
2022-09-22T23:14:28.786Z,2.27
2022-09-22T23:16:57.691Z,2.30
2022-09-22T23:19:26.294Z,2.00
2022-09-22T23:21:54.844Z,2.00
2022-09-22T23:24:22.973Z,2.27
2022-09-22T23:26:51.187Z,2.27
2022-09-22T23:29:19.628Z,1.90
2022-09-22T23:31:49.624Z,2.30
2022-09-22T23:34:18.521Z,2.23
2022-09-22T23:36:48.282Z,2.23
2022-09-22T23:39:17.778Z,2.13
2022-09-22T23:41:47.278Z,2.30
2022-09-22T23:44:15.412Z,2.30
2022-09-22T23:46:44.621Z,2.53
2022-09-22T23:49:14.572Z,2.60
2022-09-22T23:51:44.199Z,2.50
2022-09-22T23:54:14.291Z,2.20
2022-09-22T23:56:43.094Z,2.33
2022-09-22T23:59:11.664Z,2.90
